createdAt,value
2024-04-24T00:02:04.849Z,53.94
2024-04-24T00:04:31.211Z,54.43
2024-04-24T00:06:57.536Z,54.99
2024-04-24T00:09:23.850Z,55.85
2024-04-24T00:11:50.382Z,55.40
2024-04-24T00:14:16.990Z,56.36
2024-04-24T00:16:43.347Z,56.05
2024-04-24T00:19:09.743Z,56.62
2024-04-24T00:21:36.110Z,56.43
2024-04-24T00:24:02.448Z,56.19
2024-04-24T00:26:29.049Z,55.63
2024-04-24T00:28:55.363Z,54.58
2024-04-24T00:31:21.763Z,54.45
2024-04-24T00:33:48.334Z,55.17
2024-04-24T00:36:14.834Z,54.32
2024-04-24T00:38:41.176Z,53.47
2024-04-24T00:41:07.563Z,53.29
2024-04-24T00:43:33.905Z,54.00
2024-04-24T00:46:01.183Z,53.26
2024-04-24T00:48:28.242Z,53.92
2024-04-24T00:50:56.009Z,53.59
2024-04-24T00:53:22.416Z,53.63
2024-04-24T00:55:49.008Z,53.41
2024-04-24T00:58:17.592Z,53.13
2024-04-24T01:00:44.597Z,53.48
2024-04-24T01:03:12.108Z,53.71
2024-04-24T01:05:38.752Z,54.23
2024-04-24T01:08:05.274Z,54.30
2024-04-24T01:10:31.771Z,53.67
2024-04-24T01:12:58.067Z,54.72
2024-04-24T01:15:24.947Z,55.38
2024-04-24T01:17:55.538Z,55.20
2024-04-24T01:20:27.861Z,55.50
2024-04-24T01:23:00.040Z,55.32
2024-04-24T01:25:38.019Z,54.50
2024-04-24T01:28:04.624Z,55.76
2024-04-24T01:30:31.008Z,56.48
2024-04-24T01:32:57.571Z,55.72
2024-04-24T01:35:24.147Z,54.95
2024-04-24T01:37:50.589Z,56.33
2024-04-24T01:40:17.256Z,57.23
2024-04-24T01:42:43.591Z,57.72
2024-04-24T01:45:09.863Z,58.90
2024-04-24T01:47:36.321Z,58.70
2024-04-24T01:50:02.932Z,59.79
2024-04-24T01:52:32.465Z,58.24
2024-04-24T01:54:58.784Z,58.67
2024-04-24T01:57:25.103Z,60.02
2024-04-24T01:59:51.487Z,58.39
2024-04-24T02:02:17.960Z,58.18
2024-04-24T02:04:44.483Z,57.97
2024-04-24T02:07:10.785Z,58.55
2024-04-24T02:09:37.100Z,59.47
2024-04-24T02:12:10.377Z,60.66
2024-04-24T02:14:42.276Z,60.28
2024-04-24T02:17:08.753Z,61.33
2024-04-24T02:19:35.258Z,62.20
2024-04-24T02:22:01.645Z,61.76
2024-04-24T02:24:46.812Z,61.52
2024-04-24T02:27:13.162Z,62.66
2024-04-24T02:29:48.241Z,60.35
2024-04-24T02:32:21.135Z,60.22
2024-04-24T02:34:47.836Z,60.55
2024-04-24T02:37:14.165Z,60.76
2024-04-24T02:39:40.484Z,61.55
2024-04-24T02:42:07.685Z,62.38
2024-04-24T02:44:33.992Z,63.70
2024-04-24T02:47:00.355Z,63.02
2024-04-24T02:49:26.815Z,63.53
2024-04-24T02:51:53.119Z,62.82
2024-04-24T02:54:19.545Z,62.86
2024-04-24T02:56:45.860Z,63.57
2024-04-24T02:59:12.341Z,63.73
2024-04-24T03:01:38.713Z,63.73
2024-04-24T03:04:05.088Z,63.42
2024-04-24T03:06:31.377Z,64.52
2024-04-24T03:08:57.673Z,64.99
2024-04-24T03:11:24.126Z,65.18
2024-04-24T03:13:50.646Z,67.40
2024-04-24T03:16:16.955Z,67.23
2024-04-24T03:18:44.060Z,65.98
2024-04-24T03:21:10.390Z,66.33
2024-04-24T03:23:38.087Z,66.39
2024-04-24T03:26:06.514Z,66.57
2024-04-24T03:28:32.853Z,65.92
2024-04-24T03:30:59.167Z,66.85
2024-04-24T03:33:25.521Z,67.48
2024-04-24T03:35:51.873Z,67.16
2024-04-24T03:38:18.240Z,66.37
2024-04-24T03:40:45.207Z,65.52
2024-04-24T03:43:11.540Z,63.69
2024-04-24T03:45:37.895Z,63.32
2024-04-24T03:48:05.417Z,66.39
2024-04-24T03:50:31.912Z,67.93
2024-04-24T03:52:58.249Z,68.45
2024-04-24T03:55:24.941Z,68.20
2024-04-24T03:57:51.530Z,64.88
2024-04-24T04:00:17.916Z,64.60
2024-04-24T04:02:44.647Z,64.20
2024-04-24T04:05:11.174Z,65.12
2024-04-24T04:07:37.502Z,65.72
2024-04-24T04:10:04.208Z,65.57
2024-04-24T04:12:30.540Z,66.16
2024-04-24T04:14:56.814Z,66.65
2024-04-24T04:17:23.230Z,68.42
2024-04-24T04:19:49.706Z,69.94
2024-04-24T04:22:16.148Z,69.05
2024-04-24T04:24:42.908Z,67.69
2024-04-24T04:27:09.213Z,67.12
2024-04-24T04:29:35.500Z,67.01
2024-04-24T04:32:01.948Z,67.02
2024-04-24T04:34:28.353Z,66.16
2024-04-24T04:36:54.657Z,66.91
2024-04-24T04:39:21.129Z,69.01
2024-04-24T04:41:47.405Z,68.55
2024-04-24T04:44:13.827Z,69.28
2024-04-24T04:46:40.802Z,68.09
2024-04-24T04:49:07.234Z,68.87
2024-04-24T04:51:33.512Z,68.90
2024-04-24T04:53:59.839Z,67.81
2024-04-24T04:56:27.310Z,67.83
2024-04-24T04:58:53.746Z,66.43
2024-04-24T05:01:20.062Z,65.14
2024-04-24T05:03:46.481Z,65.36
2024-04-24T05:06:13.673Z,65.11
2024-04-24T05:08:40.041Z,66.24
2024-04-24T05:11:06.436Z,66.39
2024-04-24T05:13:32.857Z,65.26
2024-04-24T05:15:59.143Z,65.56
2024-04-24T05:18:25.895Z,65.18
2024-04-24T05:20:52.482Z,64.05
2024-04-24T05:23:19.013Z,64.20
2024-04-24T05:25:53.148Z,63.55
2024-04-24T05:28:38.515Z,62.86
2024-04-24T05:31:04.823Z,62.23
2024-04-24T05:33:31.524Z,62.10
2024-04-24T05:35:58.079Z,61.88
2024-04-24T05:38:24.716Z,61.75
2024-04-24T05:40:51.231Z,61.36
2024-04-24T05:43:18.125Z,60.60
2024-04-24T05:45:44.421Z,60.41
2024-04-24T05:48:10.925Z,60.48
2024-04-24T05:50:37.397Z,60.47
2024-04-24T05:53:03.928Z,60.15
2024-04-24T05:55:30.252Z,60.25
2024-04-24T05:57:56.631Z,60.45
2024-04-24T06:00:22.925Z,60.57
2024-04-24T06:02:49.358Z,60.00
2024-04-24T06:05:15.670Z,59.90
2024-04-24T06:07:42.489Z,61.63
2024-04-24T06:10:08.889Z,60.06
2024-04-24T06:12:35.218Z,59.72
2024-04-24T06:15:01.560Z,59.59
2024-04-24T06:17:28.079Z,59.70
2024-04-24T06:19:56.087Z,59.64
2024-04-24T06:22:22.434Z,59.51
2024-04-24T06:24:49.338Z,59.59
2024-04-24T06:27:15.751Z,59.46
2024-04-24T06:29:42.163Z,59.11
2024-04-24T06:32:08.571Z,58.92
2024-04-24T06:34:35.040Z,58.32
2024-04-24T06:37:01.401Z,57.91
2024-04-24T06:39:27.664Z,57.36
2024-04-24T06:41:53.947Z,56.95
2024-04-24T06:44:20.311Z,56.95
2024-04-24T06:46:46.609Z,56.50
2024-04-24T06:49:12.914Z,56.08
2024-04-24T06:51:39.278Z,56.73
2024-04-24T06:54:05.614Z,56.56
2024-04-24T06:56:31.964Z,56.79
2024-04-24T06:58:58.314Z,57.29
2024-04-24T07:01:24.703Z,57.72
2024-04-24T07:03:51.032Z,59.24
2024-04-24T07:06:17.509Z,58.95
2024-04-24T07:08:43.920Z,59.27
2024-04-24T07:11:10.315Z,59.81
2024-04-24T07:13:36.884Z,60.17
2024-04-24T07:16:03.416Z,60.45
2024-04-24T07:18:29.951Z,60.63
2024-04-24T07:20:57.009Z,60.78
2024-04-24T07:23:23.511Z,61.00
2024-04-24T07:25:50.021Z,61.26
2024-04-24T07:28:16.517Z,60.76
2024-04-24T07:30:43.046Z,60.80
2024-04-24T07:33:09.432Z,60.92
2024-04-24T07:35:35.919Z,61.29
2024-04-24T07:38:02.441Z,60.94
2024-04-24T07:40:28.916Z,61.17
2024-04-24T07:42:55.704Z,61.58
2024-04-24T07:45:22.019Z,62.15
2024-04-24T07:47:48.539Z,61.58
2024-04-24T07:50:15.239Z,62.21
2024-04-24T07:52:41.768Z,61.32
2024-04-24T07:55:08.201Z,61.31
2024-04-24T07:57:34.683Z,61.53
2024-04-24T08:00:01.144Z,62.44
2024-04-24T08:02:28.462Z,61.95
2024-04-24T08:04:55.191Z,63.23
2024-04-24T08:07:21.681Z,63.75
2024-04-24T08:09:47.995Z,63.47
2024-04-24T08:12:26.803Z,64.34
2024-04-24T08:14:53.729Z,64.84
2024-04-24T08:17:21.268Z,65.67
2024-04-24T08:19:48.726Z,65.75
2024-04-24T08:22:15.059Z,66.13
2024-04-24T08:24:41.582Z,66.59
2024-04-24T08:27:07.894Z,66.88
2024-04-24T08:29:34.379Z,66.97
2024-04-24T08:32:00.807Z,67.28
2024-04-24T08:34:27.201Z,68.23
2024-04-24T08:36:53.522Z,67.51
2024-04-24T08:39:19.836Z,67.38
2024-04-24T08:41:46.938Z,67.51
2024-04-24T08:44:13.933Z,66.90
2024-04-24T08:46:43.119Z,67.15
2024-04-24T08:49:10.953Z,67.29
2024-04-24T08:51:42.490Z,67.48
2024-04-24T08:54:14.365Z,68.14
2024-04-24T08:56:45.146Z,67.89
2024-04-24T08:59:23.668Z,68.10
2024-04-24T09:02:10.188Z,68.45
2024-04-24T09:04:41.532Z,68.59
2024-04-24T09:07:08.774Z,68.54
2024-04-24T09:09:35.592Z,68.64
2024-04-24T09:12:04.814Z,68.64
2024-04-24T09:14:33.363Z,68.98
2024-04-24T09:17:01.548Z,69.53
2024-04-24T09:19:28.516Z,69.94
2024-04-24T09:21:54.922Z,69.29
2024-04-24T09:24:21.853Z,69.06
2024-04-24T09:26:49.178Z,68.78
2024-04-24T09:29:16.141Z,68.71
2024-04-24T09:31:44.557Z,68.81
2024-04-24T09:34:11.582Z,69.18
2024-04-24T09:36:38.537Z,68.79
2024-04-24T09:39:08.186Z,68.78
2024-04-24T09:41:35.459Z,68.49
2024-04-24T09:44:02.544Z,67.34
2024-04-24T09:46:32.289Z,67.63
2024-04-24T09:49:00.139Z,67.22
2024-04-24T09:51:26.579Z,67.77
2024-04-24T09:53:52.930Z,67.19
2024-04-24T09:56:24.118Z,67.98
2024-04-24T09:58:53.320Z,68.30
2024-04-24T10:01:23.574Z,68.26
2024-04-24T10:03:55.313Z,67.98
2024-04-24T10:06:23.162Z,67.00
2024-04-24T10:08:54.033Z,67.65
2024-04-24T10:11:24.867Z,66.69
2024-04-24T10:13:51.649Z,66.42
2024-04-24T10:16:18.800Z,66.92
2024-04-24T10:18:46.404Z,66.95
2024-04-24T10:21:13.864Z,66.23
2024-04-24T10:23:42.333Z,66.17
2024-04-24T10:26:09.957Z,65.40
2024-04-24T10:28:38.119Z,64.41
2024-04-24T10:31:04.699Z,63.28
2024-04-24T10:33:32.329Z,63.97
2024-04-24T10:35:58.856Z,63.71
2024-04-24T10:38:27.288Z,63.46
2024-04-24T10:40:55.119Z,62.80
2024-04-24T10:43:23.943Z,62.15
2024-04-24T10:45:56.794Z,62.30
2024-04-24T10:48:23.243Z,61.51
2024-04-24T10:50:51.481Z,60.86
2024-04-24T10:53:19.237Z,60.11
2024-04-24T10:55:54.674Z,59.71
2024-04-24T10:58:21.521Z,59.74
2024-04-24T11:00:48.344Z,60.13
2024-04-24T11:03:14.768Z,59.85
2024-04-24T11:05:43.265Z,59.60
2024-04-24T11:08:20.159Z,59.53
2024-04-24T11:10:54.322Z,59.83
2024-04-24T11:13:20.842Z,59.79
2024-04-24T11:15:54.649Z,60.42
2024-04-24T11:18:28.596Z,60.18
2024-04-24T11:20:55.383Z,58.84
2024-04-24T11:23:22.072Z,58.22
2024-04-24T11:25:58.795Z,58.14
2024-04-24T11:28:26.907Z,57.32
2024-04-24T11:30:53.296Z,56.98
2024-04-24T11:33:20.718Z,56.97
2024-04-24T11:35:47.707Z,56.00
2024-04-24T11:38:14.192Z,55.54
2024-04-24T11:40:42.429Z,55.50
2024-04-24T11:43:09.452Z,53.61
2024-04-24T11:45:35.848Z,54.17
2024-04-24T11:48:04.383Z,52.38
2024-04-24T11:50:31.225Z,51.85
2024-04-24T11:53:00.992Z,49.95
2024-04-24T11:55:27.488Z,50.50
2024-04-24T11:57:53.793Z,50.25
2024-04-24T12:00:20.100Z,49.74
2024-04-24T12:02:46.525Z,50.35
2024-04-24T12:05:13.062Z,50.88
2024-04-24T12:07:46.473Z,51.64
2024-04-24T12:10:13.334Z,51.21
2024-04-24T12:12:42.812Z,50.67
2024-04-24T12:15:14.816Z,49.58
2024-04-24T12:17:41.518Z,48.11
2024-04-24T12:20:08.760Z,45.42
2024-04-24T12:22:35.133Z,42.84
2024-04-24T12:25:01.528Z,42.40
2024-04-24T12:27:27.861Z,41.03
2024-04-24T12:29:54.667Z,40.96
2024-04-24T12:32:21.036Z,41.40
2024-04-24T12:34:47.394Z,41.91
2024-04-24T12:37:13.705Z,43.45
2024-04-24T12:39:39.974Z,45.81
2024-04-24T12:42:06.469Z,46.71
2024-04-24T12:44:34.143Z,49.04
2024-04-24T12:47:00.667Z,51.15
2024-04-24T12:49:27.060Z,53.52
2024-04-24T12:51:54.976Z,56.61
2024-04-24T12:54:21.286Z,58.25
2024-04-24T12:56:48.876Z,61.84
2024-04-24T12:59:15.226Z,61.13
2024-04-24T13:01:41.842Z,60.16
2024-04-24T13:04:08.788Z,61.80
2024-04-24T13:06:37.204Z,61.32
2024-04-24T13:09:03.676Z,61.65
2024-04-24T13:11:30.721Z,62.53
2024-04-24T13:13:57.229Z,63.08
2024-04-24T13:16:24.331Z,62.85
2024-04-24T13:18:50.874Z,63.83
2024-04-24T13:21:19.468Z,64.29
2024-04-24T13:23:45.998Z,64.51
2024-04-24T13:26:12.379Z,63.88
2024-04-24T13:28:38.951Z,63.46
2024-04-24T13:31:07.684Z,62.36
2024-04-24T13:33:34.585Z,60.22
2024-04-24T13:36:01.178Z,58.95
2024-04-24T13:38:27.891Z,56.69
2024-04-24T13:40:54.291Z,54.76
2024-04-24T13:43:20.707Z,52.17
2024-04-24T13:45:47.040Z,50.90
2024-04-24T13:48:13.645Z,50.37
2024-04-24T13:50:40.510Z,50.29
2024-04-24T13:53:09.233Z,49.78
2024-04-24T13:55:35.898Z,49.60
2024-04-24T13:58:02.392Z,49.46
2024-04-24T14:00:30.669Z,50.04
2024-04-24T14:02:57.540Z,48.91
2024-04-24T14:05:24.105Z,49.15
2024-04-24T14:07:50.721Z,48.80
2024-04-24T14:10:17.095Z,49.32
2024-04-24T14:12:46.107Z,49.11
2024-04-24T14:15:18.898Z,49.28
2024-04-24T14:17:46.084Z,49.42
2024-04-24T14:20:12.688Z,50.13
2024-04-24T14:22:39.608Z,50.52
2024-04-24T14:25:07.320Z,50.88
2024-04-24T14:27:33.632Z,52.65
2024-04-24T14:30:00.290Z,52.39
2024-04-24T14:32:26.760Z,52.71
2024-04-24T14:34:53.169Z,53.33
2024-04-24T14:37:19.906Z,52.90
2024-04-24T14:39:46.253Z,53.57
2024-04-24T14:42:12.695Z,53.74
2024-04-24T14:44:39.075Z,53.97
2024-04-24T14:47:05.758Z,54.73
2024-04-24T14:49:32.323Z,55.71
2024-04-24T14:51:58.905Z,57.18
2024-04-24T14:54:25.304Z,58.88
2024-04-24T14:56:51.718Z,60.61
2024-04-24T14:59:18.192Z,61.63
2024-04-24T15:01:44.822Z,59.86
2024-04-24T15:04:11.350Z,62.19
2024-04-24T15:07:00.292Z,62.39
2024-04-24T15:09:26.765Z,61.94
2024-04-24T15:11:53.330Z,64.31
2024-04-24T15:14:20.086Z,64.60
2024-04-24T15:16:46.505Z,64.58
2024-04-24T15:19:12.866Z,63.91
2024-04-24T15:21:40.425Z,64.80
2024-04-24T15:24:07.033Z,64.64
2024-04-24T15:26:33.669Z,64.46
2024-04-24T15:29:00.408Z,64.57
2024-04-24T15:31:27.179Z,63.48
2024-04-24T15:33:54.357Z,63.24
2024-04-24T15:36:21.755Z,62.32
2024-04-24T15:38:48.328Z,62.08
2024-04-24T15:41:15.315Z,60.66
2024-04-24T15:43:42.240Z,60.18
2024-04-24T15:46:09.755Z,59.71
2024-04-24T15:48:37.114Z,59.76
2024-04-24T15:51:04.345Z,60.16
2024-04-24T15:53:31.040Z,60.78
2024-04-24T15:55:57.518Z,60.59
2024-04-24T15:58:24.386Z,57.68
2024-04-24T16:00:51.217Z,56.77
2024-04-24T16:03:17.849Z,56.12
2024-04-24T16:05:45.663Z,55.52
2024-04-24T16:08:12.734Z,55.21
2024-04-24T16:10:39.224Z,55.03
2024-04-24T16:13:05.578Z,54.81
2024-04-24T16:15:32.239Z,54.86
2024-04-24T16:17:58.829Z,55.36
2024-04-24T16:20:25.310Z,55.61
2024-04-24T16:22:53.292Z,57.41
2024-04-24T16:25:19.723Z,55.99
2024-04-24T16:27:46.067Z,55.80
2024-04-24T16:30:12.498Z,56.58
2024-04-24T16:32:39.859Z,57.68
2024-04-24T16:35:06.530Z,58.40
2024-04-24T16:37:32.934Z,59.08
2024-04-24T16:39:59.457Z,59.49
2024-04-24T16:42:25.943Z,57.33
2024-04-24T16:44:52.313Z,55.00
2024-04-24T16:47:18.960Z,53.99
2024-04-24T16:49:45.855Z,54.67
2024-04-24T16:52:13.831Z,53.33
2024-04-24T16:54:40.536Z,52.43
2024-04-24T16:57:10.250Z,51.20
2024-04-24T16:59:36.696Z,50.30
2024-04-24T17:02:03.248Z,49.68
2024-04-24T17:04:29.903Z,48.97
2024-04-24T17:06:56.418Z,49.04
2024-04-24T17:09:22.812Z,50.07
2024-04-24T17:11:49.638Z,49.44
2024-04-24T17:14:16.854Z,49.11
2024-04-24T17:16:43.253Z,48.68
2024-04-24T17:19:13.033Z,48.46
2024-04-24T17:21:39.478Z,49.64
2024-04-24T17:24:21.193Z,50.16
2024-04-24T17:26:48.374Z,52.19
2024-04-24T17:29:15.082Z,52.54
2024-04-24T17:31:42.043Z,54.31
2024-04-24T17:34:08.952Z,55.77
2024-04-24T17:36:35.801Z,56.35
2024-04-24T17:39:02.217Z,57.92
2024-04-24T17:41:28.691Z,60.85
2024-04-24T17:43:55.020Z,61.44
2024-04-24T17:46:21.405Z,61.90
2024-04-24T17:48:47.948Z,61.95
2024-04-24T17:51:14.403Z,60.48
2024-04-24T17:53:41.396Z,61.78
2024-04-24T17:56:08.443Z,62.18
2024-04-24T17:58:34.924Z,60.90
2024-04-24T18:01:01.706Z,61.34
2024-04-24T18:03:30.431Z,62.44
2024-04-24T18:05:57.352Z,62.81
2024-04-24T18:08:23.841Z,63.48
2024-04-24T18:10:50.360Z,62.72
2024-04-24T18:13:16.845Z,62.71
2024-04-24T18:15:45.562Z,64.64
2024-04-24T18:18:17.105Z,63.84
2024-04-24T18:20:44.645Z,64.60
2024-04-24T18:23:12.062Z,64.47
2024-04-24T18:25:38.581Z,65.13
2024-04-24T18:28:05.226Z,63.87
2024-04-24T18:30:31.672Z,64.99
2024-04-24T18:33:03.271Z,63.58
2024-04-24T18:35:30.229Z,64.35
2024-04-24T18:37:56.750Z,66.75
2024-04-24T18:40:23.209Z,66.50
2024-04-24T18:42:49.713Z,66.95
2024-04-24T18:45:16.335Z,68.34
2024-04-24T18:47:42.889Z,66.75
2024-04-24T18:50:09.791Z,67.76
2024-04-24T18:52:37.619Z,67.27
2024-04-24T18:55:05.355Z,68.13
2024-04-24T18:57:32.620Z,67.01
2024-04-24T18:59:59.570Z,67.08
2024-04-24T19:02:26.078Z,68.90
2024-04-24T19:04:52.496Z,68.89
2024-04-24T19:07:18.902Z,68.63
2024-04-24T19:09:45.266Z,67.88
2024-04-24T19:12:11.643Z,68.79
2024-04-24T19:14:38.057Z,68.09
2024-04-24T19:17:04.709Z,68.86
2024-04-24T19:19:31.162Z,68.27
2024-04-24T19:21:57.494Z,67.89
2024-04-24T19:24:24.511Z,68.95
2024-04-24T19:26:50.944Z,68.70
2024-04-24T19:29:17.428Z,69.06
2024-04-24T19:31:43.961Z,68.77
2024-04-24T19:34:10.456Z,68.50
2024-04-24T19:36:36.870Z,68.71
2024-04-24T19:39:03.618Z,69.32
2024-04-24T19:41:29.976Z,69.95
2024-04-24T19:43:56.385Z,69.58
2024-04-24T19:46:22.755Z,69.50
2024-04-24T19:48:52.562Z,70.92
2024-04-24T19:51:18.875Z,68.96
2024-04-24T19:53:45.289Z,72.88
2024-04-24T19:56:11.848Z,72.73
2024-04-24T19:58:38.352Z,71.91
2024-04-24T20:01:09.830Z,71.69
2024-04-24T20:03:37.196Z,71.82
2024-04-24T20:06:05.619Z,72.22
2024-04-24T20:08:32.774Z,72.52
2024-04-24T20:11:03.133Z,73.15
2024-04-24T20:13:29.709Z,74.50
2024-04-24T20:16:05.674Z,74.53
2024-04-24T20:18:37.853Z,74.63
2024-04-24T20:21:05.467Z,74.70
2024-04-24T20:23:32.093Z,73.84
2024-04-24T20:25:58.603Z,72.81
2024-04-24T20:28:24.974Z,71.94
2024-04-24T20:30:51.581Z,71.19
2024-04-24T20:33:18.122Z,70.99
2024-04-24T20:35:44.779Z,71.04
2024-04-24T20:38:12.113Z,70.94
2024-04-24T20:40:38.626Z,71.36
2024-04-24T20:43:05.020Z,72.26
2024-04-24T20:45:31.394Z,72.52
2024-04-24T20:47:57.897Z,72.01
2024-04-24T20:50:24.364Z,71.29
2024-04-24T20:52:50.725Z,71.54
2024-04-24T20:55:17.254Z,71.92
2024-04-24T20:57:43.760Z,71.45
2024-04-24T21:00:12.692Z,71.05
2024-04-24T21:02:39.357Z,70.74
2024-04-24T21:05:05.925Z,71.10
2024-04-24T21:07:32.346Z,72.39
2024-04-24T21:09:58.730Z,75.37
2024-04-24T21:12:25.089Z,76.87
2024-04-24T21:14:52.741Z,76.63
2024-04-24T21:17:19.163Z,75.14
2024-04-24T21:19:45.691Z,74.08
2024-04-24T21:22:12.048Z,74.31
2024-04-24T21:24:38.512Z,74.90
2024-04-24T21:27:05.037Z,74.71
2024-04-24T21:29:31.503Z,73.27
2024-04-24T21:31:58.064Z,73.80
2024-04-24T21:34:24.532Z,73.66
2024-04-24T21:36:50.987Z,73.29
2024-04-24T21:39:17.304Z,74.47
2024-04-24T21:41:44.761Z,74.13
2024-04-24T21:44:11.451Z,73.73
2024-04-24T21:46:37.849Z,74.01
2024-04-24T21:49:04.550Z,73.71
2024-04-24T21:51:30.889Z,74.79
2024-04-24T21:53:58.308Z,74.67
2024-04-24T21:56:25.109Z,73.57
2024-04-24T21:58:54.691Z,73.64
2024-04-24T22:01:20.988Z,73.91
2024-04-24T22:03:48.339Z,73.62
2024-04-24T22:06:19.178Z,74.12
2024-04-24T22:08:47.092Z,73.74
2024-04-24T22:11:13.511Z,74.17
2024-04-24T22:13:39.950Z,73.51
2024-04-24T22:16:06.847Z,74.03
2024-04-24T22:18:34.807Z,73.45
2024-04-24T22:21:01.862Z,73.88
2024-04-24T22:23:28.464Z,73.96
2024-04-24T22:25:54.816Z,74.12
2024-04-24T22:28:21.237Z,73.20
2024-04-24T22:30:48.351Z,72.77
2024-04-24T22:33:15.126Z,72.89
2024-04-24T22:35:41.608Z,72.49
2024-04-24T22:38:09.282Z,72.97
2024-04-24T22:40:35.657Z,72.57
2024-04-24T22:43:02.048Z,72.41
2024-04-24T22:45:28.822Z,72.71
2024-04-24T22:47:55.439Z,73.36
2024-04-24T22:50:22.027Z,72.78
2024-04-24T22:52:48.756Z,72.45
2024-04-24T22:55:15.089Z,71.93
2024-04-24T22:57:41.491Z,72.18
2024-04-24T23:00:15.765Z,71.95
2024-04-24T23:02:42.198Z,72.20
2024-04-24T23:05:08.731Z,72.05
2024-04-24T23:07:35.080Z,71.52
2024-04-24T23:10:01.526Z,71.76
2024-04-24T23:12:27.903Z,71.72
2024-04-24T23:14:54.595Z,71.87
2024-04-24T23:17:20.954Z,71.71
2024-04-24T23:19:47.385Z,71.64
2024-04-24T23:22:13.714Z,71.63
2024-04-24T23:24:40.035Z,71.89
2024-04-24T23:27:06.396Z,71.74
2024-04-24T23:29:34.337Z,71.40
2024-04-24T23:32:00.748Z,71.80
2024-04-24T23:34:27.173Z,71.94
2024-04-24T23:36:53.470Z,72.02
2024-04-24T23:39:19.770Z,71.38
2024-04-24T23:41:46.071Z,71.44
2024-04-24T23:44:12.476Z,71.95
2024-04-24T23:46:38.969Z,71.30
2024-04-24T23:49:05.930Z,71.86
2024-04-24T23:51:32.774Z,71.71
2024-04-24T23:53:59.066Z,71.58
2024-04-24T23:56:25.434Z,71.89
2024-04-24T23:58:52.718Z,71.92
